CLASSIFICA

LA CLASSICA D'INVERNO

DIVISIONI:
13K     CLASSIFICA:   ASSOLUTA   
CATEGORIE:   TUTTE    |   F_31_40   |   F_41_50   |   F_51_60   |   F_OVER   |   SM_16_30   |   SM_31_40   |   SM_41_50   |   SM_51_60   |   SM_OVER  
FILTRO:
  Atleta      Team        Pulisci       Atleti classificati 13K: 76  

Cliccare sulle colonne per cambiare ordinamento Pagina:   | 1 | | 2 |
Azioni Pos. M/F Cat. P.Cat. Pett Naz Atleta Squadra Tempo TEMPO MEDIA
11SM_31_40167NAWRATIL ANDREASA.S.D. ATL.CAIVANO_EPS00.49.57 00.49.57 3,38 Min/Km
22SM_41_50170VOLPACCHIO NICOLAAVIS CAMPOBASSO00.50.04 00.50.04 3,39 Min/Km
33SM_51_60141IAMONACO GIUSEPPEPODISTICA AVIS CAMPOBASSO00.50.18 00.50.18 3,40 Min/Km
44SM_41_50258INSOGNA CARLOASD AMATORI PODISMO BENEVENTO00.55.20 00.55.20 4,01 Min/Km
55SM_41_503101CAPUTELLI VINCENZOATLETICA DISFIDA DI BARLETTA00.55.51 00.55.51 4,04 Min/Km
66SM_51_60277LANZILLI SERGIOPOLISPORTIVA MOLISE AMATORI00.56.02 00.56.02 4,05 Min/Km
77SM_31_40236RICCIARDI ALESSANDROA.S.D. PODISMO BENEVENTO00.56.09 00.56.09 4,05 Min/Km
88SM_31_40329SPELTRA AMELIOA.S.D. PODISTI ALTO SANNIO00.56.47 00.56.47 4,08 Min/Km
99SM_31_40463MOTTILLO GIUSEPPELIBERO00.57.26 00.57.26 4,11 Min/Km
1010SM_41_50475PIZZUTO PAOLORUNCARD00.57.32 00.57.32 4,11 Min/Km
111F_31_40159NICCHINIELLO ILENIAASD AMATORI PODISMO BENEVENTO00.57.52 00.57.52 4,13 Min/Km
1211SM_41_50530TREMONTE PATRIZIOA.S.D. PODISTI ALTO SANNIO00.58.46 00.58.46 4,16 Min/Km
1312SM_41_50652BARBIERI CESAREASD AMATORI PODISMO BENEVENTO00.58.47 00.58.47 4,17 Min/Km
1413SM_31_40523PILLA EMILIANOA.S.D. PODISTI ALTO SANNIO00.59.29 00.59.29 4,20 Min/Km
1514SM_51_60344CIRCELLI MATTEO SALVATOREATLETICA MOLISE AMATORI00.59.33 00.59.33 4,20 Min/Km
1615SM_41_50743NOTARTOMASO TONYPODISTICA AVIS CAMPOBASSO00.59.38 00.59.38 4,20 Min/Km
1716SM_31_40654ERRICO DOMENICOASD AMATORI PODISMO BENEVENTO00.59.40 00.59.40 4,20 Min/Km
182F_41_50165PICARDI PATRIZIAPODISTICA IL LAGHETTO01.00.06 01.00.06 4,22 Min/Km
1917SM_41_50876SELVAGGIO NICOLAPODISTICA AVIS CAMPOBASSO01.00.07 01.00.07 4,22 Min/Km
2018SM_51_60461RANAURO VINCENZOA.S.D. PODISMO BENEVENTO01.01.09 01.01.09 4,27 Min/Km
2119SM_41_50921PALAZZO MARIOA.S.D. PODISTI ALTO SANNIO01.01.35 01.01.35 4,29 Min/Km
2220SM_31_40716INGLESE EMIDIOA.S.D. PODISTI ALTO SANNIO01.01.52 01.01.52 4,30 Min/Km
2321SM_31_40817INGLESE LUCAA.S.D. PODISTI ALTO SANNIO01.01.58 01.01.58 4,30 Min/Km
2422SM_31_40914GRECO MICHELEA.S.D. PODISTI ALTO SANNIO01.02.33 01.02.33 4,33 Min/Km
2523SM_OVER16LIBERTONE MICHELEATLETICA MOLISE AMATORI01.02.41 01.02.41 4,34 Min/Km
2624SM_51_60572MADDALENA ANTONIOA.S.D. RED LIONS01.02.53 01.02.53 4,34 Min/Km
273F_31_4029COLESANTI ROBERTAA.S.D. PODISTI ALTO SANNIO01.02.58 01.02.58 4,35 Min/Km
2825SM_41_501050TARANTINO GIANLUIGISANNIO RUNNERS01.03.19 01.03.19 4,36 Min/Km
2926SM_41_501128SORIANO ANTONIOA.S.D. PODISTI ALTO SANNIO01.03.28 01.03.28 4,37 Min/Km
304F_31_40342CASERIO LINDAPODISTICA AVIS CAMPOBASSO01.04.02 01.04.02 4,39 Min/Km
3127SM_51_60646VINCIGUERRA DOMENICOATLETICA MOLISE AMATORI01.04.22 01.04.22 4,41 Min/Km
3228SM_51_6077BARONE PAOLOATLETICA MOLISE AMATORI01.05.08 01.05.08 4,44 Min/Km
3329SM_41_501237TISI DOMENICOA.S.D. PODISMO BENEVENTO01.05.21 01.05.21 4,45 Min/Km
3430SM_41_501322PETROCCIA DONATOA.S.D. PODISTI ALTO SANNIO01.05.51 01.05.51 4,47 Min/Km
3531SM_31_401071DEL GROSSO ANGELORUNCARD01.06.42 01.06.42 4,51 Min/Km
3632SM_31_401112COSTANZO GIUSEPPEA.S.D. PODISTI ALTO SANNIO01.06.42 01.06.42 4,51 Min/Km
375F_41_50269EVANGEISTA FRANCESCAAVIS CAMPOBASSO01.06.57 01.06.57 4,52 Min/Km
3833SM_51_60813FESTA ANGELO MICHELEA.S.D. PODISTI ALTO SANNIO01.07.15 01.07.15 4,53 Min/Km
3934SM_OVER2102SARACINO NICOLAA.S.D. DAUNIA RUNNING01.07.26 01.07.26 4,54 Min/Km
4035SM_51_6095PIETRARCA PASQUALINOATLETICA MOLISE AMATORI01.07.33 01.07.33 4,55 Min/Km
4136SM_41_501456FUSCO LUCAASD AMATORI PODISMO BENEVENTO01.07.40 01.07.40 4,55 Min/Km
4237SM_OVER335RICCI MICHELELIBERO01.08.04 01.08.04 4,57 Min/Km
436F_31_40455FORGIONE MANUELAASD AMATORI PODISMO BENEVENTO01.08.30 01.08.30 4,59 Min/Km
4438SM_51_601040LUCIANI MARIOA.S.D. PODISMO BENEVENTO01.08.31 01.08.31 4,59 Min/Km
4539SM_OVER451CIPOLLA AGOSTINORUNNERS TERMOLI01.08.58 01.08.58 5,01 Min/Km
4640SM_41_501519NYGAARD SORENA.S.D. PODISTI ALTO SANNIO01.09.01 01.09.01 5,01 Min/Km
4741SM_31_401262PARCESEPE FRANCESCOLIBERO01.09.12 01.09.12 5,02 Min/Km
4842SM_41_501631VENDITTI CARLOA.S.D. PODISTI ALTO SANNIO01.09.32 01.09.32 5,03 Min/Km
4943SM_31_401373PETRIELLA NICOLALIBERO01.09.51 01.09.51 5,05 Min/Km
5044SM_16_30174SANNEH SEWULIBERO01.10.18 01.10.18 5,07 Min/Km
5145SM_51_601178VIRGINILLO NICOLARUNNING PENTRIA01.10.19 01.10.19 5,07 Min/Km
5246SM_51_601266CIANNELLA CARMINEPODISTICA IL LAGHETTO01.10.41 01.10.41 5,08 Min/Km
5347SM_51_601310COSTABILE UGOA.S.D. PODISTI ALTO SANNIO01.10.47 01.10.47 5,09 Min/Km
5448SM_41_501727SORIANO ANGELOA.S.D. PODISTI ALTO SANNIO01.10.53 01.10.53 5,09 Min/Km
5549SM_51_601432VICARIO MARIO ANTONIOA.S.D. PODISTI ALTO SANNIO01.11.03 01.11.03 5,10 Min/Km
567F_41_50345UCCI ANNARUNCARD01.11.09 01.11.09 5,11 Min/Km
5750SM_OVER511COSTANZO ACHILLEA.S.D. PODISTI ALTO SANNIO01.11.40 01.11.40 5,13 Min/Km
5851SM_51_601553BOFFA ADOLFOASD AMATORI PODISMO BENEVENTO01.11.45 01.11.45 5,13 Min/Km
598F_51_60160PECKA TERESAASD AMATORI PODISMO BENEVENTO01.11.46 01.11.46 5,13 Min/Km
6052SM_51_601620OCONE RAFFAELEA.S.D. PODISTI ALTO SANNIO01.14.13 01.14.13 5,24 Min/Km
6153SM_OVER647DE LUCA GIOVANNISANNIO RUNNERS01.14.33 01.14.33 5,25 Min/Km
6254SM_41_501834ZUPPA FRANCOA.S.D. PODISTI ALTO SANNIO01.15.25 01.15.25 5,29 Min/Km
6355SM_31_401464VITALE FRANCESCOLIBERO01.15.27 01.15.27 5,29 Min/Km
649F_41_50457INGLESE MICAELAASD AMATORI PODISMO BENEVENTO01.16.44 01.16.44 5,35 Min/Km
6556SM_51_601733ZEOLLA MARIOA.S.D. PODISTI ALTO SANNIO01.16.44 01.16.44 5,35 Min/Km
6657SM_OVER725RINALDI GERARDOA.S.D. PODISTI ALTO SANNIO01.19.16 01.19.16 5,46 Min/Km
6710F_51_60215IMPARATO MARIA TERESAA.S.D. PODISTI ALTO SANNIO01.22.06 01.22.06 5,58 Min/Km
6811F_OVER139MASCIA ELVIRALIBERO01.22.10 01.22.10 5,59 Min/Km
6958SM_51_601838STEFANELLI MARIOLIBERO01.22.16 01.22.16 5,59 Min/Km
7059SM_51_60198BOFFA LUIGIA.S.D. PODISTI ALTO SANNIO01.23.25 01.23.25 6,04 Min/Km
7160SM_51_602024RICCIARDI EMILIOA.S.D. PODISTI ALTO SANNIO01.23.52 01.23.52 6,06 Min/Km
7261SM_OVER818MARTINO GIUSEPPEA.S.D. PODISTI ALTO SANNIO01.25.34 01.25.34 6,13 Min/Km
7362SM_41_501949CAVUOTO PELLEGRINOSANNIO RUNNERS01.25.37 01.25.37 6,14 Min/Km
7463SM_41_502026SCETTA ALDOA.S.D. PODISTI ALTO SANNIO01.25.38 01.25.38 6,14 Min/Km
7564SM_51_602148BOTTICELLA MAURIZIOSANNIO RUNNERS01.25.38 01.25.38 6,14 Min/Km
7665SM_41_502168CATILLO LORENZOA.S.D. PODISMO BENEVENTO01.27.52 01.27.52 6,23 Min/Km
Righe per pagina::     TUTTE    |   30   |   50   |   100   Pagina:   | 1 | | 2 |